Time;durP1;ratioP1;P1;durP2;ratioP2;P2;SDS_P1;SDS_P2;PMS_P1;PMS_P2;Temp;Humidity;BMP_temperature;BMP_pressure;BME280_temperature;BME280_humidity;BME280_pressure;Samples;Min_cycle;Max_cycle;Signal;HPM_P1;HPM_P2
2022/08/09 00:01:47;;;;;;;4.15;3.75;;;;;;;16.01;100.00;102685.91;5010948;28;20030;-65
2022/08/09 00:04:16;;;;;;;5.00;3.85;;;;;;;16.00;100.00;102693.00;4995936;28;20030;-64
2022/08/09 00:06:42;;;;;;;7.93;4.97;;;;;;;15.82;100.00;102660.72;4994256;28;20034;-66
2022/08/09 00:09:08;;;;;;;4.38;3.97;;;;;;;15.92;100.00;102689.66;5010776;28;20508;-66
2022/08/09 00:11:34;;;;;;;5.43;4.78;;;;;;;15.80;100.00;102671.38;4995820;28;20042;-64
2022/08/09 00:13:59;;;;;;;6.18;4.40;;;;;;;15.83;100.00;102676.63;5010741;28;20552;-66
2022/08/09 00:16:24;;;;;;;6.45;4.97;;;;;;;15.80;100.00;102692.63;4995598;28;20074;-65
2022/08/09 00:18:49;;;;;;;5.00;4.50;;;;;;;15.70;100.00;102668.06;4995462;28;20058;-65
2022/08/09 00:21:15;;;;;;;7.10;4.63;;;;;;;15.72;100.00;102678.66;5010564;28;20038;-64
2022/08/09 00:23:40;;;;;;;4.88;4.40;;;;;;;15.70;100.00;102685.81;4995831;28;20038;-64
2022/08/09 00:26:07;;;;;;;6.63;4.53;;;;;;;15.59;100.00;102682.50;4995417;28;20068;-65
2022/08/09 00:28:33;;;;;;;5.63;4.55;;;;;;;15.64;100.00;102681.50;4995534;28;20034;-66
2022/08/09 00:30:58;;;;;;;6.75;4.65;;;;;;;15.29;100.00;102612.47;4994082;28;20031;-65
2022/08/09 00:33:25;;;;;;;5.88;4.82;;;;;;;15.59;100.00;102685.16;5010492;28;20041;-64
2022/08/09 00:35:51;;;;;;;10.45;5.05;;;;;;;15.57;100.00;102687.00;4995168;28;20410;-65
2022/08/09 00:38:16;;;;;;;6.82;4.72;;;;;;;15.54;100.00;102672.03;4994156;28;20035;-66
2022/08/09 00:40:42;;;;;;;7.95;4.90;;;;;;;15.19;100.00;102613.56;4995032;28;20054;-66
2022/08/09 00:43:07;;;;;;;8.50;5.80;;;;;;;15.14;100.00;102616.34;4994252;28;20030;-66
2022/08/09 00:45:33;;;;;;;9.85;5.43;;;;;;;15.45;100.00;102680.16;4995302;28;20097;-66
2022/08/09 00:47:59;;;;;;;8.23;5.03;;;;;;;15.15;100.00;102633.09;4993848;28;20077;-65
2022/08/09 00:50:24;;;;;;;8.40;5.93;;;;;;;15.39;100.00;102679.44;5010203;28;20073;-65
2022/08/09 00:52:53;;;;;;;12.27;5.75;;;;;;;15.37;100.00;102668.88;4994043;28;20478;-66
2022/08/09 00:55:19;;;;;;;6.30;5.50;;;;;;;15.07;100.00;102632.41;4995108;28;20034;-65
2022/08/09 00:57:44;;;;;;;7.60;6.07;;;;;;;15.33;100.00;102683.09;4993403;28;20053;-66
2022/08/09 01:00:11;;;;;;;10.32;5.95;;;;;;;15.31;100.00;102682.28;4994901;28;20500;-66
2022/08/09 01:02:39;;;;;;;8.55;6.15;;;;;;;15.00;100.00;102625.53;5009930;28;20513;-65
2022/08/09 01:05:35;;;;;;;7.32;5.60;;;;;;;15.28;100.00;102673.50;5010078;28;20462;-66
2022/08/09 01:08:03;;;;;;;10.25;6.50;;;;;;;15.28;100.00;102673.50;4994249;28;20034;-67
2022/08/09 01:10:53;;;;;;;8.40;6.43;;;;;;;14.93;100.00;102615.94;5009686;28;20486;-66
2022/08/09 01:13:31;;;;;;;8.07;6.18;;;;;;;14.90;100.00;102627.50;5003141;28;20035;-66
2022/08/09 01:15:58;;;;;;;6.80;6.00;;;;;;;15.07;100.00;102657.16;4994909;28;20034;-66
2022/08/09 01:18:28;;;;;;;8.80;6.93;;;;;;;15.19;100.00;102683.41;4993320;28;20050;-66
2022/08/09 01:21:35;;;;;;;8.80;6.63;;;;;;;15.19;100.00;102687.84;4977512;28;20433;-66
2022/08/09 01:24:38;;;;;;;7.10;5.90;;;;;;;15.16;100.00;102675.53;4996569;28;20050;-66
2022/08/09 01:27:08;;;;;;;9.25;6.25;;;;;;;15.11;100.00;102673.88;4994396;28;20478;-66
2022/08/09 01:29:41;;;;;;;7.15;6.43;;;;;;;15.11;100.00;102684.50;4992787;28;20621;-66
2022/08/09 01:32:08;;;;;;;9.70;6.63;;;;;;;15.05;100.00;102687.28;4992940;28;20389;-66
2022/08/09 01:34:34;;;;;;;7.80;7.00;;;;;;;15.04;100.00;102678.44;5009475;28;20114;-65
2022/08/09 01:37:01;;;;;;;11.45;7.30;;;;;;;15.01;100.00;102678.50;4993028;28;20475;-66
2022/08/09 01:39:27;;;;;;;12.80;7.35;;;;;;;14.68;100.00;102630.66;4992834;28;20038;-65
2022/08/09 01:41:53;;;;;;;7.63;6.93;;;;;;;14.62;100.00;102615.75;5009208;28;20058;-65
2022/08/09 01:44:19;;;;;;;11.65;7.28;;;;;;;14.93;100.00;102668.97;4992831;28;20038;-65
2022/08/09 01:46:45;;;;;;;9.80;7.85;;;;;;;14.97;100.00;102682.13;4993929;28;20425;-66
2022/08/09 01:49:15;;;;;;;10.30;7.68;;;;;;;14.79;100.00;102644.53;4992613;28;20454;-66
2022/08/09 01:51:44;;;;;;;7.78;6.85;;;;;;;14.81;100.00;102645.38;5008781;28;20038;-65
2022/08/09 01:54:11;;;;;;;8.32;7.57;;;;;;;14.71;100.00;102626.13;4992634;28;20483;-64
2022/08/09 01:56:39;;;;;;;12.18;8.30;;;;;;;14.95;100.00;102668.03;4992577;28;20069;-65
2022/08/09 01:59:08;;;;;;;9.20;7.53;;;;;;;14.71;100.00;102638.53;4992396;28;20036;-64
2022/08/09 02:01:34;;;;;;;10.90;8.45;;;;;;;14.57;100.00;102631.72;4993981;28;20038;-65
2022/08/09 02:04:01;;;;;;;8.32;7.53;;;;;;;14.86;100.00;102678.84;5009011;28;20057;-65
2022/08/09 02:09:12;;;;;;;10.38;7.72;;;;;;;14.57;100.00;102638.81;5006487;28;20045;-67
2022/08/09 02:11:38;;;;;;;9.57;8.68;;;;;;;14.51;100.00;102626.56;5008591;28;20041;-66
2022/08/09 02:14:05;;;;;;;9.07;8.13;;;;;;;14.50;100.00;102637.19;4993668;28;20030;-66
2022/08/09 02:16:34;;;;;;;12.45;9.27;;;;;;;14.78;100.00;102695.81;5008868;28;20026;-66
2022/08/09 02:18:59;;;;;;;10.82;9.63;;;;;;;14.73;100.00;102693.25;5007368;28;20042;-66
2022/08/09 02:21:25;;;;;;;13.63;9.98;;;;;;;14.75;100.00;102686.13;4993503;28;20041;-66
2022/08/09 02:23:55;;;;;;;11.65;10.32;;;;;;;14.73;100.00;102684.44;4992303;28;20038;-66
2022/08/09 02:26:20;;;;;;;10.75;9.68;;;;;;;14.42;100.00;102629.38;4992131;28;20041;-64
2022/08/09 02:28:49;;;;;;;12.45;10.93;;;;;;;14.41;100.00;102632.97;4992204;28;20034;-65
2022/08/09 02:31:24;;;;;;;14.20;10.18;;;;;;;14.27;100.00;102615.56;5008458;28;20125;-65
2022/08/09 02:33:53;;;;;;;13.55;9.93;;;;;;;14.32;100.00;102622.53;5008217;28;20035;-67
2022/08/09 02:36:28;;;;;;;11.60;10.30;;;;;;;14.53;100.00;102659.22;5008353;28;20039;-66
2022/08/09 02:38:55;;;;;;;12.25;10.95;;;;;;;14.58;100.00;102680.31;5008087;28;20445;-65
2022/08/09 02:41:27;;;;;;;12.70;10.35;;;;;;;14.58;100.00;102661.75;5007561;28;20050;-65
2022/08/09 02:43:57;;;;;;;11.55;10.07;;;;;;;14.33;100.00;102628.72;5007972;28;20397;-64
2022/08/09 02:46:26;;;;;;;13.02;10.38;;;;;;;14.52;100.00;102664.53;4991585;28;20038;-65
2022/08/09 02:48:52;;;;;;;12.27;10.98;;;;;;;14.43;100.00;102654.09;4991734;28;20139;-65
2022/08/09 02:51:19;;;;;;;11.98;10.48;;;;;;;14.50;100.00;102672.53;4975203;28;20447;-64
2022/08/09 02:53:48;;;;;;;13.45;10.48;;;;;;;14.43;100.00;102665.59;4991997;28;20088;-66
2022/08/09 02:56:15;;;;;;;12.90;10.65;;;;;;;14.36;100.00;102653.34;5008126;28;20497;-64
2022/08/09 02:58:41;;;;;;;13.43;12.02;;;;;;;14.38;100.00;102662.16;4991660;28;20169;-65
2022/08/09 03:01:07;;;;;;;12.32;11.15;;;;;;;14.37;100.00;102667.47;5008063;28;20042;-65
2022/08/09 03:03:33;;;;;;;16.23;11.35;;;;;;;14.10;100.00;102618.50;4991675;28;20038;-65
2022/08/09 03:06:00;;;;;;;16.55;11.52;;;;;;;14.10;100.00;102623.81;4991474;28;20039;-66
2022/08/09 03:08:26;;;;;;;12.50;11.23;;;;;;;14.08;100.00;102623.84;5007759;28;20031;-65
2022/08/09 03:10:53;;;;;;;13.02;10.98;;;;;;;14.31;100.00;102671.09;4992703;28;20057;-66
2022/08/09 03:13:20;;;;;;;15.10;12.18;;;;;;;14.32;100.00;102654.31;5007954;28;20101;-64
2022/08/09 03:15:46;;;;;;;13.82;11.75;;;;;;;14.31;100.00;102656.94;5007870;28;20031;-65
2022/08/09 03:18:12;;;;;;;16.13;12.55;;;;;;;14.32;100.00;102664.94;4991816;28;20042;-66
2022/08/09 03:20:38;;;;;;;13.07;11.35;;;;;;;14.23;100.00;102657.13;4991662;28;20042;-64
2022/08/09 03:23:04;;;;;;;17.25;12.63;;;;;;;14.24;100.00;102652.69;4992888;28;20485;-66
2022/08/09 03:25:30;;;;;;;15.65;12.40;;;;;;;14.29;100.00;102664.06;4991648;28;20070;-65
2022/08/09 03:27:56;;;;;;;16.58;12.43;;;;;;;14.28;100.00;102662.31;5007714;28;20076;-65
2022/08/09 03:30:22;;;;;;;15.57;12.13;;;;;;;14.22;100.00;102657.13;4993285;28;20045;-65
2022/08/09 03:32:48;;;;;;;14.68;12.55;;;;;;;14.27;100.00;102664.13;5011432;28;20038;-65
2022/08/09 03:35:14;;;;;;;17.15;13.10;;;;;;;14.26;100.00;102672.06;4995341;28;20049;-67
2022/08/09 03:37:39;;;;;;;14.05;12.35;;;;;;;13.94;100.00;102636.47;4979067;28;20426;-66
2022/08/09 03:40:06;;;;;;;16.90;12.40;;;;;;;13.91;100.00;102620.63;4995088;28;20054;-66
2022/08/09 03:42:31;;;;;;;14.25;12.70;;;;;;;14.12;100.00;102666.16;4996416;28;20031;-65
2022/08/09 03:44:56;;;;;;;14.30;12.68;;;;;;;13.90;100.00;102628.59;4995075;28;20046;-67
2022/08/09 03:47:22;;;;;;;17.33;12.57;;;;;;;14.20;100.00;102688.94;5010859;28;20121;-66
2022/08/09 03:49:48;;;;;;;16.83;12.82;;;;;;;14.26;100.00;102685.31;4994888;28;20114;-66
2022/08/09 03:52:15;;;;;;;15.20;13.48;;;;;;;14.18;100.00;102666.94;4994957;28;20030;-66
2022/08/09 03:54:43;;;;;;;15.57;13.60;;;;;;;13.87;100.00;102611.00;4996130;28;20041;-65
2022/08/09 03:57:10;;;;;;;16.38;13.45;;;;;;;13.87;100.00;102628.63;4996195;28;20165;-69
2022/08/09 03:59:35;;;;;;;14.27;12.65;;;;;;;14.16;100.00;102686.38;5011110;28;20034;-66
2022/08/09 04:02:01;;;;;;;14.23;12.73;;;;;;;13.85;100.00;102644.56;4995982;28;20172;-65
2022/08/09 04:04:26;;;;;;;16.27;12.75;;;;;;;14.21;100.00;102703.94;4996237;28;20036;-65
2022/08/09 04:06:52;;;;;;;15.77;13.63;;;;;;;13.91;100.00;102649.75;4996006;28;20120;-65
2022/08/09 04:09:17;;;;;;;14.25;12.63;;;;;;;14.26;100.00;102711.81;5010850;28;20500;-65
2022/08/09 04:11:48;;;;;;;15.43;12.98;;;;;;;14.28;100.00;102705.56;4994582;28;20037;-64
2022/08/09 04:14:15;;;;;;;15.82;12.00;;;;;;;14.09;100.00;102675.03;4995812;28;20030;-65
2022/08/09 04:16:40;;;;;;;17.35;14.13;;;;;;;14.30;100.00;102698.47;4995680;28;20393;-66
2022/08/09 04:19:06;;;;;;;16.55;13.55;;;;;;;14.32;100.00;102695.81;4995768;28;20038;-67
2022/08/09 04:21:31;;;;;;;17.23;12.68;;;;;;;14.08;100.00;102650.31;4995923;28;20134;-67
2022/08/09 04:23:56;;;;;;;17.35;12.40;;;;;;;14.19;100.00;102666.00;4995670;28;20034;-67
2022/08/09 04:26:22;;;;;;;17.52;12.77;;;;;;;14.42;100.00;102708.88;4995541;28;20038;-66
2022/08/09 04:28:47;;;;;;;18.25;12.90;;;;;;;14.14;100.00;102667.00;4995513;28;20401;-66
2022/08/09 04:31:12;;;;;;;17.13;13.00;;;;;;;14.46;100.00;102718.53;4994053;28;20074;-66
2022/08/09 04:33:38;;;;;;;16.80;12.95;;;;;;;14.47;100.00;102730.00;4995527;28;20488;-66
2022/08/09 04:36:04;;;;;;;15.07;12.43;;;;;;;14.16;100.00;102674.00;4995624;28;20533;-65
2022/08/09 04:38:29;;;;;;;16.20;13.07;;;;;;;14.22;100.00;102688.91;4995312;28;20122;-66
2022/08/09 04:40:55;;;;;;;14.07;12.20;;;;;;;14.42;100.00;102726.53;5009627;28;20485;-65
2022/08/09 04:43:21;;;;;;;14.13;11.38;;;;;;;14.38;100.00;102719.56;4994977;28;20030;-66
2022/08/09 04:45:46;;;;;;;16.10;11.65;;;;;;;14.39;100.00;102723.97;4994774;28;20613;-67
2022/08/09 04:48:12;;;;;;;14.07;12.43;;;;;;;14.34;100.00;102709.91;5010490;28;20039;-65
2022/08/09 04:50:37;;;;;;;14.13;11.38;;;;;;;14.37;100.00;102728.41;4995136;28;20061;-66
2022/08/09 04:53:06;;;;;;;14.55;11.65;;;;;;;14.30;100.00;102708.22;4995224;28;20059;-66
2022/08/09 04:55:31;;;;;;;13.88;11.35;;;;;;;14.10;100.00;102663.53;4993733;28;20030;-67
2022/08/09 04:57:57;;;;;;;14.60;11.98;;;;;;;14.10;100.00;102672.34;4993601;28;20038;-66
2022/08/09 05:00:22;;;;;;;18.38;11.60;;;;;;;14.41;100.00;102728.34;4993504;28;20038;-67
2022/08/09 05:02:47;;;;;;;13.38;12.07;;;;;;;14.30;100.00;102714.34;4994870;28;20053;-66
2022/08/09 05:05:12;;;;;;;14.60;11.98;;;;;;;14.38;100.00;102723.09;4990369;28;20038;-65
2022/08/09 05:07:38;;;;;;;14.13;12.15;;;;;;;14.43;100.00;102730.94;4972286;28;20157;-67
2022/08/09 05:10:03;;;;;;;15.23;11.77;;;;;;;14.43;100.00;102729.19;4972422;28;20042;-67
2022/08/09 05:12:30;;;;;;;15.65;11.73;;;;;;;14.48;100.00;102737.03;4974466;28;20038;-66
2022/08/09 05:14:55;;;;;;;13.95;12.40;;;;;;;14.48;100.00;102740.56;4974853;28;20410;-66
2022/08/09 05:17:20;;;;;;;13.98;11.07;;;;;;;14.52;100.00;102739.59;4975036;28;20039;-67
2022/08/09 05:19:46;;;;;;;15.13;11.38;;;;;;;14.56;100.00;102729.84;4975411;28;20121;-66
2022/08/09 05:22:12;;;;;;;15.13;11.25;;;;;;;14.23;100.00;102669.47;4974964;28;20401;-65
2022/08/09 05:24:39;;;;;;;13.45;11.82;;;;;;;14.42;100.00;102689.44;4973658;28;20050;-65
2022/08/09 05:27:04;;;;;;;13.13;11.25;;;;;;;14.68;100.00;102723.41;4974759;28;20043;-65
2022/08/09 05:29:29;;;;;;;14.13;11.80;;;;;;;14.69;100.00;102726.03;4974853;28;20161;-66
2022/08/09 05:31:58;;;;;;;14.27;11.38;;;;;;;14.50;100.00;102696.38;4957461;28;20089;-66
2022/08/09 05:34:29;;;;;;;14.55;12.13;;;;;;;14.78;100.00;102728.50;4974831;28;20035;-66
2022/08/09 05:36:55;;;;;;;16.30;11.65;;;;;;;14.81;100.00;102739.03;4974898;28;20214;-67
2022/08/09 05:39:21;;;;;;;17.45;12.55;;;;;;;14.93;100.00;102735.28;4974724;28;20134;-66
2022/08/09 05:41:46;;;;;;;14.27;11.95;;;;;;;14.66;100.00;102673.06;4974350;28;20462;-65
2022/08/09 05:44:12;;;;;;;15.52;12.05;;;;;;;14.78;100.00;102683.44;4974521;28;20100;-66
2022/08/09 05:46:37;;;;;;;15.32;12.75;;;;;;;15.13;100.00;102733.06;4974242;28;20030;-65
2022/08/09 05:49:02;;;;;;;12.68;10.38;;;;;;;15.25;100.00;102737.25;4973423;28;20414;-66
2022/08/09 05:51:28;;;;;;;14.55;11.85;;;;;;;15.02;100.00;102690.00;4974834;28;20459;-67
2022/08/09 05:53:53;;;;;;;12.68;11.18;;;;;;;15.38;100.00;102744.88;4989289;28;20509;-67
2022/08/09 05:56:19;;;;;;;12.88;11.15;;;;;;;15.14;100.00;102695.03;4974304;28;20062;-66
2022/08/09 05:58:45;;;;;;;13.65;11.20;;;;;;;15.26;100.00;102694.78;4974251;28;20035;-66
2022/08/09 06:01:10;;;;;;;12.40;11.07;;;;;;;15.48;100.00;102727.03;4973420;28;20109;-66
2022/08/09 06:03:35;;;;;;;14.90;11.07;;;;;;;15.35;100.00;102685.72;4974129;28;20121;-65
2022/08/09 06:06:01;;;;;;;14.73;12.10;;;;;;;15.75;100.00;102752.94;4974290;28;20031;-66
2022/08/09 06:08:26;;;;;;;12.20;10.90;;;;;;;15.85;100.00;102762.41;4974159;28;20529;-65
2022/08/09 06:10:55;;;;;;;12.93;11.63;;;;;;;15.91;100.00;102748.13;4974020;28;20406;-66
2022/08/09 06:13:21;;;;;;;15.38;10.93;;;;;;;16.04;100.00;102749.56;4972790;28;20034;-66
2022/08/09 06:15:50;;;;;;;11.52;10.20;;;;;;;16.13;100.00;102754.66;4972810;28;20038;-66
2022/08/09 06:18:15;;;;;;;11.57;10.40;;;;;;;16.24;100.00;102757.91;4973991;28;20035;-67
2022/08/09 06:20:40;;;;;;;14.35;10.82;;;;;;;16.19;100.00;102733.25;4973996;28;20479;-68
2022/08/09 06:23:06;;;;;;;11.80;10.10;;;;;;;16.45;100.00;102756.50;4972302;28;20035;-66
2022/08/09 06:25:32;;;;;;;12.40;9.88;;;;;;;16.57;100.00;102765.06;4974325;28;20042;-65
2022/08/09 06:27:57;;;;;;;10.40;9.30;;;;;;;16.30;100.00;102709.94;4972476;28;20073;-66
2022/08/09 06:30:23;;;;;;;12.25;9.50;;;;;;;16.56;100.00;102762.41;4972724;28;20427;-66
2022/08/09 06:32:51;;;;;;;10.73;8.82;;;;;;;16.69;100.00;102759.41;4972406;28;20065;-66
2022/08/09 06:35:17;;;;;;;10.35;9.02;;;;;;;16.85;100.00;102778.44;4973650;28;20486;-66
2022/08/09 06:37:42;;;;;;;9.98;8.98;;;;;;;16.62;100.00;102722.38;4973697;28;20042;-66
2022/08/09 06:40:08;;;;;;;9.20;8.20;;;;;;;17.02;100.00;102772.66;4973715;28;20451;-67
2022/08/09 06:42:33;;;;;;;9.52;8.45;;;;;;;17.13;100.00;102784.72;4973375;28;20039;-66
2022/08/09 06:44:59;;;;;;;9.95;8.93;;;;;;;17.23;100.00;102796.88;4972302;28;20119;-68
2022/08/09 06:47:24;;;;;;;12.38;8.57;;;;;;;17.37;100.00;102777.81;4973447;28;20138;-67
2022/08/09 06:49:51;;;;;;;10.00;8.98;;;;;;;17.22;100.00;102736.56;4973500;28;20510;-67
2022/08/09 06:52:16;;;;;;;10.57;8.27;;;;;;;17.62;100.00;102778.00;4973458;28;20077;-67
2022/08/09 06:54:42;;;;;;;9.30;8.02;;;;;;;17.78;100.00;102789.88;4972276;28;20074;-67
2022/08/09 06:57:08;;;;;;;7.75;6.97;;;;;;;17.56;100.00;102749.75;4973394;28;20035;-66
2022/08/09 06:59:33;;;;;;;7.45;5.95;;;;;;;17.79;100.00;102812.97;4973501;28;20431;-67
2022/08/09 07:01:59;;;;;;;7.65;6.25;;;;;;;17.87;100.00;102805.59;4973512;28;20045;-66
2022/08/09 07:04:24;;;;;;;8.30;6.00;;;;;;;17.67;100.00;102744.09;4972860;28;20038;-66
2022/08/09 07:06:49;;;;;;;8.40;6.25;;;;;;;17.92;100.00;102779.69;4973359;28;20075;-67
2022/08/09 07:09:15;;;;;;;6.25;5.65;;;;;;;18.20;100.00;102807.19;4973531;28;20386;-66
2022/08/09 07:11:40;;;;;;;8.15;6.15;;;;;;;18.32;100.00;102806.78;4973161;28;20038;-67
2022/08/09 07:14:06;;;;;;;7.20;6.28;;;;;;;18.40;100.00;102802.03;4973561;28;20046;-66
2022/08/09 07:16:32;;;;;;;7.47;6.40;;;;;;;18.58;100.00;102818.38;4973409;28;20035;-66
2022/08/09 07:18:57;;;;;;;7.90;5.93;;;;;;;18.33;100.00;102773.84;4972198;28;20027;-66
2022/08/09 07:21:22;;;;;;;8.07;5.07;;;;;;;18.78;100.00;102822.09;4973135;28;20046;-66
2022/08/09 07:23:48;;;;;;;7.10;4.85;;;;;;;18.46;100.00;102766.31;4973146;28;20045;-66
2022/08/09 07:26:13;;;;;;;7.40;4.88;;;;;;;18.74;100.00;102827.59;4988114;28;20035;-66
2022/08/09 07:28:39;;;;;;;6.03;4.28;;;;;;;18.62;100.00;102788.91;4971982;28;20049;-66
2022/08/09 07:31:04;;;;;;;6.32;4.53;;;;;;;18.68;100.00;102782.47;4973185;28;20039;-66
2022/08/09 07:33:31;;;;;;;5.20;3.55;;;;;;;18.97;100.00;102801.81;4971946;28;20082;-66
2022/08/09 07:35:57;;;;;;;3.80;3.00;;;;;;;19.36;100.00;102812.81;4972176;28;20085;-66
2022/08/09 07:38:22;;;;;;;4.13;3.30;;;;;;;19.71;100.00;102826.66;4972966;28;20030;-66
2022/08/09 07:40:48;;;;;;;5.22;3.45;;;;;;;19.69;100.00;102788.44;4972843;28;20054;-66
2022/08/09 07:43:13;;;;;;;4.18;2.45;;;;;;;20.01;100.00;102807.63;4973192;28;20034;-66
2022/08/09 07:45:38;;;;;;;3.28;2.67;;;;;;;20.27;100.00;102833.31;4971820;28;20031;-66
2022/08/09 07:48:04;;;;;;;5.32;2.25;;;;;;;20.47;100.00;102849.41;4971846;28;20043;-65
2022/08/09 07:50:29;;;;;;;2.90;2.28;;;;;;;20.63;100.00;102849.63;4973063;28;20537;-66
2022/08/09 07:52:55;;;;;;;2.47;2.20;;;;;;;21.03;100.00;102840.72;4972617;28;20039;-66
2022/08/09 07:55:20;;;;;;;3.05;1.85;;;;;;;21.36;100.00;102858.00;4971668;28;20081;-65
2022/08/09 07:57:47;;;;;;;2.88;1.80;;;;;;;21.65;100.00;102867.38;4972937;28;20174;-66
2022/08/09 08:00:15;;;;;;;3.85;2.00;;;;;;;21.77;100.00;102848.03;4973081;28;20067;-65
2022/08/09 08:02:41;;;;;;;4.50;1.90;;;;;;;22.34;100.00;102817.50;4972981;28;20062;-66
2022/08/09 08:05:06;;;;;;;5.07;2.28;;;;;;;22.38;100.00;102825.34;4972740;28;20023;-64
2022/08/09 08:07:32;;;;;;;2.03;1.30;;;;;;;22.90;100.00;102830.75;4972648;28;20050;-66
2022/08/09 08:09:57;;;;;;;4.53;1.88;;;;;;;23.31;100.00;102893.00;4972977;28;20050;-66
2022/08/09 08:12:24;;;;;;;4.30;1.75;;;;;;;23.15;100.00;102857.16;4972811;28;20042;-65
2022/08/09 08:14:49;;;;;;;1.88;1.40;;;;;;;23.43;100.00;102852.09;4972795;28;20039;-65
2022/08/09 08:17:15;;;;;;;2.75;1.48;;;;;;;23.21;100.00;102852.31;4974276;28;20031;-66
2022/08/09 08:19:40;;;;;;;3.25;1.20;;;;;;;23.42;100.00;102861.97;4976224;28;20039;-65
2022/08/09 08:22:05;;;;;;;2.58;1.20;;;;;;;23.46;100.00;102898.47;4958693;28;20030;-67
2022/08/09 08:24:31;;;;;;;3.25;1.20;;;;;;;23.47;100.00;102864.38;4974703;28;20034;-67
2022/08/09 08:26:56;;;;;;;1.92;1.30;;;;;;;23.92;100.00;102898.63;4976044;28;20031;-67
2022/08/09 08:29:23;;;;;;;2.35;1.40;;;;;;;24.24;100.00;102873.50;4976101;28;20027;-67
2022/08/09 08:31:48;;;;;;;1.80;1.30;;;;;;;24.76;100.00;102887.44;4975763;28;20078;-66
2022/08/09 08:34:13;;;;;;;3.38;1.80;;;;;;;25.06;100.00;102861.38;4975867;28;20042;-67
2022/08/09 08:36:39;;;;;;;2.88;1.30;;;;;;;25.17;100.00;102880.44;4976198;28;20042;-67
2022/08/09 08:39:04;;;;;;;1.85;0.93;;;;;;;25.59;100.00;102914.72;4975871;28;20039;-66
2022/08/09 08:41:30;;;;;;;2.35;1.40;;;;;;;25.87;100.00;102915.63;4990688;28;20383;-66
2022/08/09 08:43:57;;;;;;;2.22;1.40;;;;;;;25.58;100.00;102901.31;4974784;28;20038;-66
2022/08/09 08:46:30;;;;;;;3.42;1.10;;;;;;;25.78;100.00;102910.81;4975680;28;20516;-66
2022/08/09 08:48:56;;;;;;;6.47;1.05;;;;;;;26.07;100.00;102899.88;4974514;28;20038;-66
2022/08/09 08:51:22;;;;;;;3.42;1.30;;;;;;;25.90;100.00;102916.31;4973919;28;20034;-67
2022/08/09 08:53:47;;;;;;;7.38;1.52;;;;;;;25.90;100.00;102908.22;4974183;28;20479;-66
2022/08/09 08:56:13;;;;;;;2.05;1.17;;;;;;;25.98;100.00;102889.69;4975714;28;20046;-66
2022/08/09 08:58:38;;;;;;;2.15;1.38;;;;;;;26.47;100.00;102913.50;4958459;28;20027;-65
2022/08/09 09:01:04;;;;;;;5.35;1.20;;;;;;;26.71;100.00;102928.03;4975450;28;20039;-67
2022/08/09 09:03:33;;;;;;;1.88;1.50;;;;;;;26.60;100.00;102931.47;4974202;28;20038;-64
2022/08/09 09:06:04;;;;;;;3.67;1.02;;;;;;;26.70;100.00;102926.34;4975328;28;20486;-66
2022/08/09 09:08:36;;;;;;;2.65;0.80;;;;;;;26.37;100.00;102933.97;4973900;28;20070;-66
2022/08/09 09:11:03;;;;;;;3.15;1.00;;;;;;;26.19;100.00;102890.16;4973990;28;20045;-65
2022/08/09 09:13:38;;;;;;;2.42;1.15;;;;;;;25.93;100.00;102940.41;4975203;28;20034;-66
2022/08/09 09:16:04;;;;;;;1.48;0.80;;;;;;;25.90;100.00;102923.53;4975259;28;20479;-66
2022/08/09 09:18:29;;;;;;;2.33;0.70;;;;;;;25.77;100.00;102928.00;4975063;28;20069;-66
2022/08/09 09:20:55;;;;;;;2.85;1.00;;;;;;;26.37;100.00;102891.63;4975058;28;20113;-65
2022/08/09 09:23:43;;;;;;;3.53;1.52;;;;;;;26.88;100.00;102919.72;4975085;28;20406;-66
2022/08/09 09:26:12;;;;;;;2.05;0.95;;;;;;;26.96;100.00;102890.31;4975041;28;20041;-64
2022/08/09 09:28:43;;;;;;;1.52;0.80;;;;;;;27.33;100.00;102918.34;4973249;28;20090;-66
2022/08/09 09:31:15;;;;;;;0.95;0.90;;;;;;;27.17;100.00;102929.41;4974771;28;20031;-65
2022/08/09 09:33:40;;;;;;;1.63;0.70;;;;;;;27.26;100.00;102927.88;4974620;28;20387;-66
2022/08/09 09:36:07;;;;;;;1.30;0.85;;;;;;;27.03;100.00;102939.44;4974983;28;20034;-59
2022/08/09 09:38:51;;;;;;;4.30;1.13;;;;;;;27.47;100.00;102939.03;4974569;28;20042;-60
2022/08/09 09:41:23;;;;;;;1.35;0.80;;;;;;;27.43;100.00;102942.94;4973223;28;20108;-62
2022/08/09 09:43:56;;;;;;;2.85;0.73;;;;;;;27.17;100.00;102896.06;4972798;28;20034;-61
2022/08/09 09:46:34;;;;;;;1.00;0.55;;;;;;;27.57;100.00;102943.72;4974217;28;20482;-60
2022/08/09 09:49:03;;;;;;;2.05;0.88;;;;;;;27.83;100.00;102941.84;4972988;28;20434;-61
2022/08/09 09:51:29;;;;;;;2.38;0.60;;;;;;;27.81;100.00;102941.09;4972949;28;20070;-60
2022/08/09 09:54:12;;;;;;;1.25;0.80;;;;;;;27.87;98.26;102940.66;4974361;28;20073;-62
2022/08/09 09:56:39;;;;;;;1.65;0.73;;;;;;;28.52;97.86;102935.78;4973295;28;20045;-62
2022/08/09 09:59:07;;;;;;;1.60;0.70;;;;;;;28.47;96.36;102929.88;4973355;28;20031;-58
2022/08/09 10:01:33;;;;;;;1.67;0.93;;;;;;;28.12;95.03;102950.56;4972794;28;20109;-57
2022/08/09 10:03:59;;;;;;;1.15;0.57;;;;;;;27.97;94.28;102944.41;4973013;28;20061;-56
2022/08/09 10:06:29;;;;;;;2.13;0.60;;;;;;;28.20;89.06;102953.56;4973009;28;20423;-56
2022/08/09 10:08:59;;;;;;;4.32;0.68;;;;;;;28.52;96.83;102933.09;4974220;28;20034;-59
2022/08/09 10:11:27;;;;;;;0.93;0.55;;;;;;;27.98;95.31;102889.28;4974102;28;20351;-54
2022/08/09 10:13:53;;;;;;;0.95;0.47;;;;;;;28.88;90.91;102940.31;4974119;28;20043;-57
2022/08/09 10:16:27;;;;;;;0.40;0.40;;;;;;;28.79;83.88;102941.88;4972863;28;20035;-60
2022/08/09 10:18:53;;;;;;;1.20;0.50;;;;;;;29.38;85.50;102923.72;4967419;28;20407;-62
2022/08/09 10:21:19;;;;;;;1.48;0.80;;;;;;;29.35;85.43;102918.53;4953321;28;20039;-57
2022/08/09 10:23:45;;;;;;;1.27;1.10;;;;;;;29.54;86.91;102926.91;4955194;28;20035;-55
2022/08/09 10:26:12;;;;;;;1.98;0.80;;;;;;;29.41;87.73;102925.31;4969559;28;20380;-59
2022/08/09 10:28:39;;;;;;;1.38;0.70;;;;;;;29.31;87.98;102929.72;4953412;28;20035;-59
2022/08/09 10:31:10;;;;;;;1.08;0.60;;;;;;;29.71;89.47;102920.16;4954477;28;20174;-57
2022/08/09 10:33:35;;;;;;;;;;;;;;;30.34;86.68;102927.63;4969616;28;20581;-53
2022/08/09 10:36:05;;;;;;;2.38;0.60;;;;;;;30.11;86.22;102887.91;4969214;28;19925;-52
2022/08/09 10:38:31;;;;;;;2.05;0.60;;;;;;;30.30;84.36;102909.84;4968891;28;20372;-56
2022/08/09 10:40:56;;;;;;;1.98;0.52;;;;;;;30.31;81.39;102906.13;4968472;28;20061;-60
2022/08/09 10:43:22;;;;;;;1.20;0.70;;;;;;;30.11;80.63;102883.34;4969178;28;20062;-56
2022/08/09 10:45:47;;;;;;;0.60;0.50;;;;;;;29.67;77.28;102937.66;4954241;28;20063;-59
2022/08/09 10:48:52;;;;;;;1.48;0.52;;;;;;;29.41;86.07;102923.47;4954137;28;20114;-53
2022/08/09 10:51:33;;;;;;;0.63;0.47;;;;;;;29.63;82.53;102913.63;4968865;28;20063;-58
2022/08/09 10:54:04;;;;;;;1.33;0.73;;;;;;;29.77;86.07;102878.94;4969027;28;20086;-59
2022/08/09 10:56:32;;;;;;;0.82;0.70;;;;;;;29.74;82.66;102917.19;4968492;28;20023;-59
2022/08/09 10:59:00;;;;;;;1.55;0.70;;;;;;;29.90;90.43;102914.13;4952847;29;20031;-54
2022/08/09 11:01:31;;;;;;;2.50;0.55;;;;;;;30.45;90.22;102919.47;4954180;28;20035;-58
2022/08/09 11:04:08;;;;;;;0.68;0.40;;;;;;;30.73;84.69;102909.84;4953981;28;20031;-58
2022/08/09 11:06:41;;;;;;;1.60;0.70;;;;;;;31.14;75.17;102915.31;4953997;28;20153;-59
2022/08/09 11:09:07;;;;;;;1.00;0.63;;;;;;;30.04;75.46;102898.41;4954143;28;20039;-59
2022/08/09 11:11:58;;;;;;;1.20;0.60;;;;;;;30.26;80.73;102905.66;4953819;28;20046;-59
2022/08/09 11:14:53;;;;;;;0.93;0.55;;;;;;;29.67;77.91;102905.09;4954083;28;20043;-57
2022/08/09 11:17:19;;;;;;;2.28;0.80;;;;;;;30.18;80.51;102908.16;4953907;28;20028;-56